Kezdőlap
METAR-TAF:

METAR-TAF

Repülőterek :

Havanna, Kuba

földrajzi szélesség: 22-59N, földrajzi hosszúság: 082-24W, magasság: 59 m

Jelenlegi meteorológiai megfigyelések

A jelentés 1 órával és 25 perccel ezelõtt készült, 09:55 UTC
Szélcsend
Hőmérséklet 19°C
Páratartalom 100%
Légköri nyomás 1015 hPa
Látótávolság: 9000 m
Kevés felhő 3500 lábon

METAR: MUHA 230955Z 00000KT 9000 FEW035 19/19 Q1015

Idő: 07:20 (11:20 UTC)

Előrejelzés

A jelentés 6 órával és 20 perccel ezelõtt készült, 05:00 UTC
Az előrejelzés 23-én 06 óra UTC és 24-én 06 óra UTC között érvényes
Keleti szél 5 kt
Látótávolság: 9000 m
Kevés felhő 3000 lábon

TAF: MUHA 230500Z 2306/2406 09005KT 9000 FEW030

Meteorológiai megfigyelések és előrejelzések több, mint 4000 repülőtéren (METAR és TAF jelentéseket).

A térképen piros és sárga pontok jelzik az elérhető meteorológiai állomásokat.

Mozgassa az egeret a pont fölött, hogy megjelenjen az állomás neve.

Azután kattintson az időjárási megfigyelések és előrejelzések megtekintéséhez.

A térkép megváltoztatása: kattintson a fekete keresztel jelölt zöld gombra ráközelítéshez, a vonallal jelölt zöld gombra távolításhoz, vagy a zöld nyilakra a szomszédos térképek eléréséhez.


METAR-TAF: